Time;durP1;ratioP1;P1;durP2;ratioP2;P2;SDS_P1;SDS_P2;PMS_P1;PMS_P2;Temp;Humidity;BMP_temperature;BMP_pressure;BME280_temperature;BME280_humidity;BME280_pressure;Samples;Min_cycle;Max_cycle;Signal;HPM_P1;HPM_P2
2023/07/21 00:01:03;;;;;;;7.20;3.90;;;;;;;17.30;100.00;99380.19;109776;1249;25534;-41
2023/07/21 00:03:32;;;;;;;9.70;4.30;;;;;;;17.31;100.00;99385.80;110205;1249;22633;-41
2023/07/21 00:06:01;;;;;;;9.70;4.40;;;;;;;17.33;100.00;99389.73;110296;1249;22516;-47
2023/07/21 00:08:29;;;;;;;8.80;4.50;;;;;;;17.36;100.00;99395.30;110208;1249;22524;-46
2023/07/21 00:10:59;;;;;;;5.70;3.80;;;;;;;17.36;100.00;99393.02;110244;1249;22654;-41
2023/07/21 00:13:26;;;;;;;4.70;3.40;;;;;;;17.33;100.00;99397.70;110382;1249;24260;-41
2023/07/21 00:15:54;;;;;;;6.00;3.30;;;;;;;17.27;100.00;99395.63;110220;1249;24179;-39
2023/07/21 00:18:22;;;;;;;6.30;3.10;;;;;;;17.24;100.00;99397.54;109932;1249;22522;-40
2023/07/21 00:20:50;;;;;;;5.30;3.00;;;;;;;17.21;100.00;99397.13;110322;1249;23877;-47
2023/07/21 00:23:19;;;;;;;5.60;3.60;;;;;;;17.18;100.00;99392.68;110024;1249;22496;-46
2023/07/21 00:25:47;;;;;;;4.90;3.60;;;;;;;17.15;100.00;99392.10;109990;1249;22527;-42
2023/07/21 00:28:14;;;;;;;5.40;3.10;;;;;;;17.13;100.00;99393.27;110339;1249;22514;-40
2023/07/21 00:30:42;;;;;;;5.40;3.10;;;;;;;17.10;100.00;99398.81;110034;1249;22500;-46
2023/07/21 00:33:09;;;;;;;5.80;3.30;;;;;;;17.07;100.00;99403.52;110159;1249;22505;-39
2023/07/21 00:35:36;;;;;;;4.80;3.70;;;;;;;17.04;100.00;99406.45;110020;1234;24210;-47
2023/07/21 00:38:04;;;;;;;4.10;3.10;;;;;;;17.00;100.00;99412.27;110279;1249;24113;-45
2023/07/21 00:40:33;;;;;;;6.40;3.40;;;;;;;16.96;100.00;99408.38;110539;1249;22513;-42
2023/07/21 00:43:00;;;;;;;11.90;3.50;;;;;;;16.94;100.00;99414.97;110194;1237;24624;-42
2023/07/21 00:45:28;;;;;;;6.60;3.50;;;;;;;16.93;100.00;99417.30;110255;1249;22525;-48
2023/07/21 00:47:56;;;;;;;4.50;3.50;;;;;;;16.90;100.00;99417.04;110725;1249;23027;-46
2023/07/21 00:50:23;;;;;;;6.80;4.00;;;;;;;16.89;100.00;99412.16;110132;1249;22520;-40
2023/07/21 00:52:50;;;;;;;6.50;3.80;;;;;;;16.88;100.00;99406.41;109900;1249;22505;-46
2023/07/21 00:55:18;;;;;;;8.40;3.70;;;;;;;16.87;100.00;99405.91;110588;1249;25552;-41
2023/07/21 00:57:46;;;;;;;4.70;3.50;;;;;;;16.84;100.00;99401.79;109809;1249;24018;-41
2023/07/21 01:00:13;;;;;;;5.60;4.00;;;;;;;16.83;100.00;99400.45;110237;1249;23893;-46
2023/07/21 01:02:41;;;;;;;7.60;3.70;;;;;;;16.83;100.00;99402.19;110558;1249;22696;-40
2023/07/21 01:05:08;;;;;;;5.60;3.70;;;;;;;16.85;100.00;99403.00;110122;1249;22526;-44
2023/07/21 01:07:35;;;;;;;4.90;3.60;;;;;;;16.85;100.00;99401.77;109748;1249;26972;-41
2023/07/21 01:10:04;;;;;;;4.60;3.40;;;;;;;16.82;100.00;99402.41;110165;1249;25282;-46
2023/07/21 01:12:31;;;;;;;6.00;4.20;;;;;;;16.79;100.00;99400.08;109771;1249;25957;-40
2023/07/21 01:14:58;;;;;;;6.50;3.70;;;;;;;16.76;100.00;99398.42;110545;1249;25449;-42
2023/07/21 01:17:28;;;;;;;9.40;3.90;;;;;;;16.72;100.00;99399.98;110334;1249;22513;-41
2023/07/21 01:19:55;;;;;;;7.10;3.60;;;;;;;16.69;100.00;99402.36;110559;1249;24304;-47
2023/07/21 01:22:31;;;;;;;7.80;3.70;;;;;;;16.66;100.00;99399.67;109704;1249;22528;-46
2023/07/21 01:25:07;;;;;;;4.80;4.00;;;;;;;16.63;100.00;99404.33;110533;1249;25415;-40
2023/07/21 01:27:39;;;;;;;6.10;4.00;;;;;;;16.61;100.00;99405.52;110338;1249;25315;-40
2023/07/21 01:30:10;;;;;;;5.70;4.40;;;;;;;16.58;100.00;99409.29;109744;1249;22594;-40
2023/07/21 01:32:42;;;;;;;8.30;4.60;;;;;;;16.56;100.00;99406.73;110454;1249;22517;-40
2023/07/21 01:35:12;;;;;;;7.20;4.60;;;;;;;16.56;100.00;99410.27;110330;1249;22500;-42
2023/07/21 01:37:40;;;;;;;11.10;4.40;;;;;;;16.58;100.00;99413.00;109862;1249;22549;-41
2023/07/21 01:40:08;;;;;;;7.20;4.90;;;;;;;16.60;100.00;99416.45;110078;1249;25317;-41
2023/07/21 01:42:35;;;;;;;9.30;5.40;;;;;;;16.63;100.00;99416.14;110009;1249;22532;-47
2023/07/21 01:45:04;;;;;;;7.10;5.50;;;;;;;16.65;100.00;99416.43;110086;1249;22544;-42
2023/07/21 01:47:34;;;;;;;7.10;5.70;;;;;;;16.68;100.00;99418.40;110149;1249;26590;-47
2023/07/21 01:50:03;;;;;;;8.00;6.00;;;;;;;16.72;100.00;99422.14;110469;1249;25396;-47
2023/07/21 01:52:31;;;;;;;7.00;5.40;;;;;;;16.77;100.00;99427.27;109904;1249;22619;-42
2023/07/21 01:55:01;;;;;;;12.80;5.50;;;;;;;16.81;100.00;99429.75;110312;1249;25311;-46
2023/07/21 01:57:32;;;;;;;8.70;6.30;;;;;;;16.83;100.00;99430.20;110122;1249;24735;-41
2023/07/21 02:00:00;;;;;;;8.70;6.20;;;;;;;16.85;100.00;99436.09;110083;1249;22599;-41
2023/07/21 02:02:29;;;;;;;9.10;5.50;;;;;;;16.88;100.00;99439.88;110234;1249;24168;-41
2023/07/21 02:04:56;;;;;;;8.10;5.20;;;;;;;16.90;100.00;99446.81;109935;1249;22500;-46
2023/07/21 02:07:24;;;;;;;8.90;5.50;;;;;;;16.91;100.00;99447.84;110208;1249;22533;-40
2023/07/21 02:09:52;;;;;;;7.60;5.70;;;;;;;16.90;100.00;99461.27;110202;1249;22519;-40
2023/07/21 02:12:20;;;;;;;9.80;6.00;;;;;;;16.89;100.00;99465.21;110166;1249;23996;-46
2023/07/21 02:14:58;;;;;;;7.20;5.30;;;;;;;16.85;100.00;99466.38;110032;1249;22523;-40
2023/07/21 02:17:25;;;;;;;7.20;5.60;;;;;;;16.83;100.00;99470.02;109888;1249;26697;-40
2023/07/21 02:19:53;;;;;;;10.20;5.60;;;;;;;16.81;100.00;99472.52;110436;1249;22674;-40
2023/07/21 02:22:20;;;;;;;6.60;5.20;;;;;;;16.79;100.00;99473.84;110013;1249;24191;-45
2023/07/21 02:24:51;;;;;;;7.70;5.20;;;;;;;16.78;100.00;99471.42;110440;1249;24197;-43
2023/07/21 02:27:19;;;;;;;6.60;5.60;;;;;;;16.79;100.00;99474.90;110013;1249;22538;-42
2023/07/21 02:29:48;;;;;;;10.30;5.90;;;;;;;16.80;100.00;99476.80;111393;1249;25531;-41
2023/07/21 02:32:15;;;;;;;8.90;5.50;;;;;;;16.79;100.00;99476.13;110131;1249;22714;-41
2023/07/21 02:34:43;;;;;;;6.30;5.70;;;;;;;16.80;100.00;99481.04;110420;1249;22508;-40
2023/07/21 02:37:10;;;;;;;8.30;5.30;;;;;;;16.81;100.00;99485.56;109842;1249;22513;-43
2023/07/21 02:39:37;;;;;;;6.30;5.40;;;;;;;16.82;100.00;99490.27;109683;1249;23888;-41
2023/07/21 02:42:05;;;;;;;9.10;5.30;;;;;;;16.84;100.00;99493.02;110273;1249;22559;-42
2023/07/21 02:44:32;;;;;;;6.60;5.20;;;;;;;16.86;100.00;99493.81;110189;1249;22607;-40
2023/07/21 02:46:59;;;;;;;7.90;5.20;;;;;;;16.89;100.00;99498.29;109955;1249;22533;-45
2023/07/21 02:49:28;;;;;;;7.50;5.30;;;;;;;16.92;100.00;99501.33;110258;1249;26461;-50
2023/07/21 02:51:55;;;;;;;7.70;5.40;;;;;;;16.96;100.00;99503.48;109922;1249;22614;-46
2023/07/21 02:54:22;;;;;;;6.80;5.10;;;;;;;16.98;100.00;99511.85;109789;1249;24236;-41
2023/07/21 02:56:50;;;;;;;11.80;6.30;;;;;;;16.98;100.00;99515.18;110232;1249;22550;-41
2023/07/21 02:59:24;;;;;;;8.50;5.90;;;;;;;16.97;100.00;99512.23;109925;1249;22507;-39
2023/07/21 03:01:54;;;;;;;8.30;5.50;;;;;;;16.96;100.00;99513.68;109647;1249;22577;-42
2023/07/21 03:04:26;;;;;;;7.00;4.80;;;;;;;16.95;100.00;99519.38;109884;1249;22492;-41
2023/07/21 03:06:56;;;;;;;9.50;6.40;;;;;;;16.93;100.00;99523.68;110046;1249;22507;-41
2023/07/21 03:09:23;;;;;;;10.90;6.10;;;;;;;16.91;100.00;99520.38;109818;1249;22516;-45
2023/07/21 03:11:51;;;;;;;12.50;6.00;;;;;;;16.90;100.00;99525.38;109685;1249;22508;-46
2023/07/21 03:14:41;;;;;;;10.00;6.00;;;;;;;16.88;100.00;99528.97;109888;1249;25241;-41
2023/07/21 03:17:12;;;;;;;9.20;6.90;;;;;;;16.88;100.00;99534.29;110209;1249;22522;-46
2023/07/21 03:19:40;;;;;;;8.10;6.30;;;;;;;16.87;100.00;99545.55;110135;1249;22583;-42
2023/07/21 03:22:09;;;;;;;8.10;6.60;;;;;;;16.87;100.00;99545.40;109934;1249;25429;-46
2023/07/21 03:24:39;;;;;;;9.50;7.20;;;;;;;16.87;100.00;99552.61;110188;1249;23218;-46
2023/07/21 03:27:07;;;;;;;9.60;6.70;;;;;;;16.87;100.00;99557.36;109974;1249;24191;-45
2023/07/21 03:29:37;;;;;;;14.40;7.20;;;;;;;16.90;100.00;99555.68;109650;1249;25354;-41
2023/07/21 03:32:05;;;;;;;7.40;6.60;;;;;;;16.92;100.00;99563.50;110205;1249;25436;-46
2023/07/21 03:34:35;;;;;;;7.50;6.80;;;;;;;16.93;100.00;99564.17;109752;1249;22510;-42
2023/07/21 03:37:06;;;;;;;11.30;6.80;;;;;;;16.93;100.00;99572.30;109840;1249;23971;-44
2023/07/21 03:39:33;;;;;;;11.10;7.10;;;;;;;16.92;100.00;99574.95;110124;1249;22494;-46
2023/07/21 03:42:01;;;;;;;9.50;7.90;;;;;;;16.92;100.00;99576.91;110001;1249;109645;-41
2023/07/21 03:44:28;;;;;;;8.00;7.20;;;;;;;16.93;100.00;99575.63;110116;1249;22459;-42
2023/07/21 03:46:55;;;;;;;8.90;6.90;;;;;;;16.94;100.00;99579.48;110173;1249;24059;-40
2023/07/21 03:49:35;;;;;;;8.40;6.40;;;;;;;16.95;100.00;99585.23;110322;1249;23229;-45
2023/07/21 03:52:07;;;;;;;10.80;7.20;;;;;;;16.98;100.00;99587.06;109737;1249;24297;-46
2023/07/21 03:54:34;;;;;;;9.40;7.60;;;;;;;17.01;100.00;99592.25;109911;1249;22516;-46
2023/07/21 03:57:02;;;;;;;9.60;7.30;;;;;;;17.03;100.00;99597.26;110035;1249;22512;-45
2023/07/21 03:59:29;;;;;;;9.00;7.50;;;;;;;17.06;100.00;99596.83;109698;1249;24249;-41
2023/07/21 04:01:56;;;;;;;19.40;6.70;;;;;;;17.06;100.00;99598.73;110039;1249;22530;-42
2023/07/21 04:04:23;;;;;;;8.70;7.80;;;;;;;17.08;100.00;99596.56;110133;1249;25378;-40
2023/07/21 04:06:51;;;;;;;8.80;7.50;;;;;;;17.12;100.00;99608.56;110223;1249;25472;-46
2023/07/21 04:09:18;;;;;;;10.70;7.20;;;;;;;17.17;100.00;99613.84;109895;1249;25580;-46
2023/07/21 04:11:45;;;;;;;12.00;7.20;;;;;;;17.23;100.00;99611.65;109913;1249;24371;-41
2023/07/21 04:14:12;;;;;;;8.20;7.20;;;;;;;17.32;100.00;99617.16;110050;1249;22535;-40
2023/07/21 04:16:39;;;;;;;9.30;7.20;;;;;;;17.39;100.00;99621.80;109842;1249;24220;-40
2023/07/21 04:19:06;;;;;;;11.10;7.60;;;;;;;17.48;100.00;99622.88;110339;1249;22560;-42
2023/07/21 04:21:34;;;;;;;10.20;7.80;;;;;;;17.54;100.00;99625.45;110126;1249;26514;-40
2023/07/21 04:24:01;;;;;;;10.70;7.30;;;;;;;17.60;100.00;99632.28;110190;1249;22510;-41
2023/07/21 04:26:29;;;;;;;10.70;7.20;;;;;;;17.63;100.00;99635.33;110425;1249;23213;-45
2023/07/21 04:28:56;;;;;;;12.00;8.10;;;;;;;17.63;100.00;99637.27;109939;1249;22507;-40
2023/07/21 04:31:28;;;;;;;8.40;6.90;;;;;;;17.62;100.00;99637.31;110133;1249;22514;-42
2023/07/21 04:34:01;;;;;;;6.80;6.10;;;;;;;17.55;100.00;99639.69;109846;1249;22521;-46
2023/07/21 04:36:29;;;;;;;6.70;6.00;;;;;;;17.48;100.00;99642.79;109916;1249;26586;-41
2023/07/21 04:39:00;;;;;;;7.20;6.50;;;;;;;17.42;100.00;99647.77;110190;1249;24358;-45
2023/07/21 04:41:28;;;;;;;8.80;6.60;;;;;;;17.41;100.00;99652.05;109987;1249;23377;-41
2023/07/21 04:43:56;;;;;;;8.10;6.60;;;;;;;17.43;100.00;99654.06;110076;1249;23315;-45
2023/07/21 04:46:26;;;;;;;7.50;6.00;;;;;;;17.46;100.00;99657.66;110321;1249;22508;-45
2023/07/21 04:48:55;;;;;;;8.40;6.70;;;;;;;17.50;100.00;99661.21;110399;1249;22767;-45
2023/07/21 04:51:30;;;;;;;9.00;6.00;;;;;;;17.54;100.00;99662.13;110060;1249;23213;-40
2023/07/21 04:53:57;;;;;;;6.80;6.10;;;;;;;17.55;100.00;99661.36;110114;1249;25264;-47
2023/07/21 04:56:26;;;;;;;8.70;6.40;;;;;;;17.57;100.00;99663.25;110077;1249;22490;-41
2023/07/21 04:58:55;;;;;;;7.90;6.30;;;;;;;17.62;100.00;99666.06;110166;1241;22500;-40
2023/07/21 05:01:22;;;;;;;9.30;7.40;;;;;;;17.67;100.00;99667.77;109921;1249;22521;-45
2023/07/21 05:03:50;;;;;;;10.90;6.30;;;;;;;17.71;100.00;99668.54;109577;1249;22632;-46
2023/07/21 05:06:17;;;;;;;11.90;6.00;;;;;;;17.74;100.00;99671.42;110396;1249;23269;-46
2023/07/21 05:08:49;;;;;;;8.50;5.60;;;;;;;17.78;100.00;99678.68;110662;1249;22864;-40
2023/07/21 05:11:15;;;;;;;7.40;5.50;;;;;;;17.83;100.00;99681.33;110871;1249;22521;-41
2023/07/21 05:13:48;;;;;;;7.00;5.50;;;;;;;17.86;100.00;99682.79;110259;1249;22965;-44
2023/07/21 05:16:21;;;;;;;5.30;4.80;;;;;;;17.90;100.00;99684.89;110827;1249;25373;-40
2023/07/21 05:19:22;;;;;;;12.00;6.10;;;;;;;17.95;100.00;99687.01;109903;1249;22527;-40
2023/07/21 05:22:08;;;;;;;7.00;5.40;;;;;;;17.98;100.00;99684.44;111202;1249;22494;-41
2023/07/21 05:24:53;;;;;;;7.40;5.30;;;;;;;18.02;100.00;99686.36;112893;1249;22410;-41
2023/07/21 05:27:22;;;;;;;7.10;5.40;;;;;;;18.05;100.00;99685.00;112810;1249;22380;-47
2023/07/21 05:29:53;;;;;;;7.80;5.00;;;;;;;18.10;100.00;99686.42;112834;1249;23044;-47
2023/07/21 05:32:20;;;;;;;10.00;6.20;;;;;;;18.16;100.00;99690.42;112757;1249;22971;-47
2023/07/21 05:34:56;;;;;;;7.70;5.80;;;;;;;18.22;100.00;99695.65;112752;1249;23123;-45
2023/07/21 05:37:23;;;;;;;11.70;5.40;;;;;;;18.27;100.00;99696.66;112912;1249;22360;-41
2023/07/21 05:39:52;;;;;;;9.00;6.00;;;;;;;18.29;100.00;99698.88;112852;1249;22455;-41
2023/07/21 05:42:23;;;;;;;7.70;5.30;;;;;;;18.31;100.00;99700.72;112451;1249;23023;-46
2023/07/21 05:44:51;;;;;;;7.80;5.40;;;;;;;18.32;100.00;99702.45;110956;1249;25506;-42
2023/07/21 05:47:22;;;;;;;6.70;5.80;;;;;;;18.32;100.00;99701.05;110728;1249;23008;-41
2023/07/21 05:49:55;;;;;;;12.70;6.50;;;;;;;18.31;100.00;99701.59;111750;1249;22546;-41
2023/07/21 05:52:23;;;;;;;6.40;5.80;;;;;;;18.32;100.00;99705.08;111649;1249;22502;-41
2023/07/21 05:54:51;;;;;;;6.90;6.10;;;;;;;18.34;100.00;99705.71;110608;1249;22501;-40
2023/07/21 05:57:19;;;;;;;12.30;6.20;;;;;;;18.31;100.00;99702.83;110398;1249;25633;-39
2023/07/21 05:59:49;;;;;;;7.30;5.60;;;;;;;18.29;100.00;99698.50;110594;1249;22514;-40
2023/07/21 06:02:17;;;;;;;12.70;6.10;;;;;;;18.40;100.00;99706.90;111119;1249;23247;-41
2023/07/21 06:04:51;;;;;;;5.10;4.60;;;;;;;18.56;100.00;99707.27;112896;1249;22381;-40
2023/07/21 06:07:49;;;;;;;5.20;4.70;;;;;;;18.77;100.00;99710.83;112400;1249;22487;-47
2023/07/21 06:10:40;;;;;;;4.60;4.20;;;;;;;18.87;100.00;99712.50;111473;1249;22489;-41
2023/07/21 06:13:29;;;;;;;6.70;4.30;;;;;;;18.91;100.00;99717.83;111153;1249;23290;-40
2023/07/21 06:16:22;;;;;;;5.40;3.90;;;;;;;18.93;100.00;99720.59;111099;1249;22558;-40
2023/07/21 06:18:51;;;;;;;6.10;4.00;;;;;;;18.90;98.95;99723.86;110627;1249;26556;-43
2023/07/21 06:21:20;;;;;;;7.70;3.80;;;;;;;18.87;99.02;99725.08;110086;1249;22639;-41
2023/07/21 06:23:48;;;;;;;5.20;4.20;;;;;;;18.86;99.63;99726.52;111162;1249;22517;-42
2023/07/21 06:26:15;;;;;;;10.40;4.70;;;;;;;18.89;99.92;99727.80;110611;1249;22522;-46
2023/07/21 06:28:43;;;;;;;5.30;4.20;;;;;;;18.93;100.00;99728.90;109924;1249;24204;-46
2023/07/21 06:31:14;;;;;;;5.70;4.30;;;;;;;18.97;99.73;99732.61;110392;1249;22514;-40
2023/07/21 06:34:03;;;;;;;6.10;3.90;;;;;;;18.99;100.00;99734.27;109849;1249;23687;-45
2023/07/21 06:36:42;;;;;;;5.90;3.60;;;;;;;19.00;99.48;99736.85;111344;1249;24226;-40
2023/07/21 06:39:41;;;;;;;4.10;3.70;;;;;;;18.98;98.04;99736.26;111720;1249;22985;-46
2023/07/21 06:42:24;;;;;;;;;;;;;;;19.01;97.29;99733.67;112019;1249;24159;-42
2023/07/21 06:45:20;;;;;;;4.30;3.40;;;;;;;19.11;96.54;99732.33;110289;1249;22713;-41
2023/07/21 06:48:06;;;;;;;6.30;3.90;;;;;;;19.26;95.19;99734.15;110510;1249;22503;-40
2023/07/21 06:50:54;;;;;;;4.20;3.70;;;;;;;19.39;94.69;99739.74;110261;1249;24329;-42
2023/07/21 06:53:23;;;;;;;4.00;3.60;;;;;;;19.43;92.23;99740.65;110497;1249;22540;-47
2023/07/21 06:55:51;;;;;;;5.00;3.30;;;;;;;19.39;91.29;99738.87;110598;1249;25203;-40
2023/07/21 06:58:18;;;;;;;4.40;3.30;;;;;;;19.33;91.34;99744.79;110864;1249;22504;-41
2023/07/21 07:00:46;;;;;;;4.30;3.00;;;;;;;19.32;91.28;99746.77;111975;1249;22478;-43
2023/07/21 07:03:13;;;;;;;5.60;3.00;;;;;;;19.44;92.17;99747.48;111446;1249;22500;-42
2023/07/21 07:05:47;;;;;;;3.00;2.70;;;;;;;19.61;91.97;99744.43;110982;1249;22549;-46
2023/07/21 07:08:21;;;;;;;5.30;2.90;;;;;;;19.82;91.24;99748.07;110502;1249;22608;-46
2023/07/21 07:10:48;;;;;;;3.30;3.00;;;;;;;20.02;90.18;99743.41;112049;1249;22510;-40
2023/07/21 07:13:15;;;;;;;3.60;2.80;;;;;;;20.20;89.97;99749.81;110135;1249;22558;-40
2023/07/21 07:15:52;;;;;;;2.60;2.40;;;;;;;20.37;88.44;99755.88;109930;1249;26764;-40
2023/07/21 07:18:19;;;;;;;2.80;2.50;;;;;;;20.51;86.60;99759.33;112872;1249;23601;-40
2023/07/21 07:20:50;;;;;;;7.60;2.70;;;;;;;20.54;85.34;99759.52;111331;1249;25382;-41
2023/07/21 07:23:18;;;;;;;3.50;2.50;;;;;;;20.56;84.25;99767.56;110640;1249;23869;-39
2023/07/21 07:25:51;;;;;;;3.00;2.10;;;;;;;20.61;83.47;99769.26;111027;1249;24332;-40
2023/07/21 07:28:20;;;;;;;2.60;2.30;;;;;;;20.72;83.03;99771.02;110926;1249;25253;-42
2023/07/21 07:30:48;;;;;;;4.60;2.20;;;;;;;20.80;81.85;99772.94;110610;1249;22543;-41
2023/07/21 07:33:23;;;;;;;5.30;3.00;;;;;;;20.84;81.50;99772.02;110916;1249;23290;-45
2023/07/21 07:35:55;;;;;;;3.00;2.70;;;;;;;20.91;80.96;99773.77;112726;1249;22356;-40
2023/07/21 07:38:27;;;;;;;2.80;2.50;;;;;;;20.98;81.01;99772.55;111536;1248;22981;-46
2023/07/21 07:41:03;;;;;;;6.70;3.40;;;;;;;21.07;80.16;99779.70;110989;1249;22418;-41
2023/07/21 07:43:32;;;;;;;4.90;3.10;;;;;;;21.15;78.42;99785.69;111572;1249;22389;-41
2023/07/21 07:46:00;;;;;;;3.60;3.20;;;;;;;21.13;77.33;99785.96;111798;1249;22502;-41
2023/07/21 07:48:29;;;;;;;90.80;56.10;;;;;;;21.10;76.72;99786.85;111945;1249;22536;-46
2023/07/21 07:50:56;;;;;;;3.70;3.40;;;;;;;21.05;77.28;99785.15;111887;1249;24108;-46
2023/07/21 07:53:23;;;;;;;6.40;4.00;;;;;;;21.06;77.86;99780.15;112831;1249;22244;-46
2023/07/21 07:55:51;;;;;;;7.80;4.00;;;;;;;21.12;78.08;99785.30;112867;1249;22255;-42
2023/07/21 07:58:18;;;;;;;5.10;3.50;;;;;;;21.17;77.26;99786.64;112091;1249;22888;-45
2023/07/21 08:00:47;;;;;;;5.70;3.30;;;;;;;21.16;76.17;99785.80;112561;1249;22416;-41
2023/07/21 08:03:14;;;;;;;5.00;3.10;;;;;;;21.18;75.21;99786.96;112814;1249;22379;-41
2023/07/21 08:05:41;;;;;;;3.50;2.80;;;;;;;21.24;74.29;99790.89;112805;1249;23324;-46
2023/07/21 08:08:09;;;;;;;3.60;3.30;;;;;;;21.29;73.56;99788.33;112812;1249;22469;-46
2023/07/21 08:10:41;;;;;;;3.60;3.30;;;;;;;21.34;73.67;99787.77;112866;1249;22373;-42
2023/07/21 08:13:08;;;;;;;3.40;3.10;;;;;;;21.39;73.98;99780.52;112826;1249;22173;-41
2023/07/21 08:15:39;;;;;;;3.70;3.40;;;;;;;21.53;74.67;99777.51;112825;1249;22409;-41
2023/07/21 08:18:07;;;;;;;4.00;3.70;;;;;;;21.74;74.73;99780.13;112857;1249;23608;-46
2023/07/21 08:20:36;;;;;;;5.20;3.70;;;;;;;21.90;74.31;99782.58;112848;1249;23561;-41
2023/07/21 08:23:04;;;;;;;4.50;3.70;;;;;;;21.98;74.24;99784.80;112815;1249;23319;-46
2023/07/21 08:25:45;;;;;;;3.40;3.10;;;;;;;22.00;72.73;99788.41;112809;1249;22400;-40
2023/07/21 08:28:12;;;;;;;8.10;3.40;;;;;;;21.98;71.37;99788.39;112830;1249;22455;-40
2023/07/21 08:30:39;;;;;;;5.90;3.60;;;;;;;21.94;70.50;99782.20;112869;1249;22363;-46
2023/07/21 08:33:24;;;;;;;3.70;3.30;;;;;;;21.98;71.53;99786.23;112867;1249;22400;-41
2023/07/21 08:35:51;;;;;;;5.50;3.40;;;;;;;22.08;71.71;99788.91;112861;1249;22659;-45
2023/07/21 08:38:18;;;;;;;5.40;3.80;;;;;;;22.14;72.63;99796.95;112828;1249;22424;-41
2023/07/21 08:40:49;;;;;;;3.50;3.20;;;;;;;22.17;72.12;99797.84;112863;1249;22597;-41
2023/07/21 08:43:17;;;;;;;3.80;3.50;;;;;;;22.11;70.99;99802.27;112266;1249;22457;-40
2023/07/21 08:45:45;;;;;;;3.80;3.20;;;;;;;22.08;70.92;99809.13;111917;1249;24219;-41
2023/07/21 08:48:16;;;;;;;5.20;3.30;;;;;;;22.07;69.54;99808.64;112182;1249;25314;-40
2023/07/21 08:50:44;;;;;;;5.60;3.60;;;;;;;22.05;69.30;99808.39;110417;1249;25253;-45
2023/07/21 08:53:11;;;;;;;5.60;3.30;;;;;;;22.06;70.20;99809.25;109790;1249;26484;-41
2023/07/21 08:55:42;;;;;;;4.10;3.70;;;;;;;22.07;70.60;99806.01;110124;1249;23161;-46
2023/07/21 08:58:09;;;;;;;4.40;3.60;;;;;;;22.12;71.15;99812.65;111607;1249;22435;-41
2023/07/21 09:00:37;;;;;;;3.80;3.20;;;;;;;22.16;69.73;99807.67;109563;1249;22513;-46
2023/07/21 09:03:04;;;;;;;6.20;3.10;;;;;;;22.18;69.04;99810.02;112670;1249;23631;-40
2023/07/21 09:05:33;;;;;;;3.10;2.80;;;;;;;22.23;68.47;99809.43;112791;1249;22576;-41
2023/07/21 09:08:00;;;;;;;4.80;3.00;;;;;;;22.30;69.88;99807.73;112526;1249;22448;-40
2023/07/21 09:10:31;;;;;;;4.20;2.80;;;;;;;22.48;69.21;99810.27;112806;1249;22368;-45
2023/07/21 09:13:17;;;;;;;2.80;2.60;;;;;;;22.56;68.38;99809.83;112751;1249;22868;-46
2023/07/21 09:15:52;;;;;;;3.80;2.90;;;;;;;22.60;68.94;99816.90;112876;1249;22552;-46
2023/07/21 09:18:28;;;;;;;5.90;3.30;;;;;;;22.68;68.43;99819.45;112855;1249;22451;-46
2023/07/21 09:20:55;;;;;;;3.50;2.90;;;;;;;22.72;68.04;99823.81;112852;1249;22452;-41
2023/07/21 09:23:23;;;;;;;2.70;2.50;;;;;;;22.76;68.61;99825.21;112763;1249;22566;-42
2023/07/21 09:25:54;;;;;;;3.60;2.80;;;;;;;22.84;66.22;99822.79;112698;1249;23240;-41
2023/07/21 09:28:37;;;;;;;2.80;2.60;;;;;;;22.81;64.66;99824.95;112699;1249;22402;-42
2023/07/21 09:31:05;;;;;;;3.30;2.40;;;;;;;22.72;65.25;99825.63;112749;1249;22409;-39
2023/07/21 09:33:37;;;;;;;3.40;2.50;;;;;;;22.69;65.50;99827.08;112711;1249;22549;-45
2023/07/21 09:36:08;;;;;;;;;;;;;;;22.62;63.91;99821.41;112816;1249;22354;-39
2023/07/21 09:38:37;;;;;;;2.70;2.40;;;;;;;22.56;65.72;99827.40;112842;1249;22393;-39
2023/07/21 09:41:11;;;;;;;3.20;2.40;;;;;;;22.62;65.52;99825.15;112849;1249;22383;-42
2023/07/21 09:43:38;;;;;;;5.40;2.40;;;;;;;22.68;65.12;99830.28;112895;1249;22364;-39
2023/07/21 09:46:09;;;;;;;3.60;2.60;;;;;;;22.71;65.88;99833.35;111921;1249;23247;-40
2023/07/21 09:48:41;;;;;;;2.90;2.40;;;;;;;22.65;65.93;99830.14;112380;1249;22410;-45
2023/07/21 09:51:08;;;;;;;3.60;3.30;;;;;;;22.64;67.19;99829.98;111002;1249;23328;-39
2023/07/21 09:53:40;;;;;;;2.90;2.60;;;;;;;22.74;67.32;99832.27;111305;1249;22652;-44
2023/07/21 09:56:08;;;;;;;2.40;2.10;;;;;;;22.82;65.75;99832.47;111575;1249;24253;-46
2023/07/21 09:58:57;;;;;;;3.30;2.00;;;;;;;22.88;66.53;99830.55;111229;1249;22561;-41
2023/07/21 10:01:24;;;;;;;2.90;2.40;;;;;;;22.98;66.22;99830.90;111866;1249;22515;-45
2023/07/21 10:03:52;;;;;;;3.00;2.50;;;;;;;23.04;65.71;99832.35;112788;1249;22403;-45
2023/07/21 10:06:19;;;;;;;2.30;2.10;;;;;;;23.07;65.26;99831.93;112822;1249;23115;-44
2023/07/21 10:08:47;;;;;;;4.30;2.20;;;;;;;23.14;65.10;99835.83;110679;1249;22522;-46
2023/07/21 10:11:14;;;;;;;4.90;2.40;;;;;;;23.19;64.43;99842.45;110926;1249;22488;-44
2023/07/21 10:13:45;;;;;;;3.90;2.40;;;;;;;23.21;64.12;99837.02;110638;1249;26486;-44
2023/07/21 10:16:13;;;;;;;4.80;1.90;;;;;;;23.32;64.36;99840.44;110023;1249;22511;-46
2023/07/21 10:19:10;;;;;;;3.40;2.00;;;;;;;23.45;64.35;99845.89;112923;1249;22362;-44
2023/07/21 10:21:49;;;;;;;2.10;1.90;;;;;;;23.44;62.44;99847.20;112861;1249;22397;-39
2023/07/21 10:24:22;;;;;;;2.00;1.60;;;;;;;23.42;63.21;99850.36;112773;1249;22409;-44
2023/07/21 10:26:55;;;;;;;4.50;2.40;;;;;;;23.44;62.66;99853.30;112867;1249;22416;-45
2023/07/21 10:29:22;;;;;;;3.30;2.20;;;;;;;23.50;62.53;99850.55;111264;1249;22500;-38
2023/07/21 10:31:56;;;;;;;3.60;2.20;;;;;;;23.58;61.27;99851.48;110402;1249;22636;-39
2023/07/21 10:34:31;;;;;;;2.60;1.90;;;;;;;23.68;62.14;99848.24;110289;1249;24256;-45
2023/07/21 10:36:59;;;;;;;4.80;2.20;;;;;;;23.85;62.14;99848.27;110698;1249;25307;-46
2023/07/21 10:39:28;;;;;;;2.20;1.90;;;;;;;24.00;60.19;99857.18;109982;1249;22549;-45
2023/07/21 10:41:57;;;;;;;2.20;1.60;;;;;;;24.09;59.57;99863.55;110323;1249;22548;-45
2023/07/21 10:44:44;;;;;;;1.80;1.70;;;;;;;24.28;59.50;99867.66;110018;1249;22498;-39
2023/07/21 10:47:18;;;;;;;2.50;1.90;;;;;;;24.34;58.47;99865.14;110333;1249;25765;-40
2023/07/21 10:49:47;;;;;;;2.80;2.00;;;;;;;24.25;58.65;99873.77;109802;1249;24201;-44
2023/07/21 10:52:14;;;;;;;2.80;1.70;;;;;;;24.11;57.99;99867.81;110260;1249;22499;-38
2023/07/21 10:54:41;;;;;;;2.70;1.90;;;;;;;24.05;58.50;99869.10;110102;1249;22505;-38
2023/07/21 10:57:09;;;;;;;3.50;1.90;;;;;;;24.04;58.40;99869.21;109956;1249;22589;-46
2023/07/21 10:59:36;;;;;;;2.70;2.00;;;;;;;24.06;58.22;99864.77;110092;1249;22504;-41
2023/07/21 11:02:06;;;;;;;5.20;2.00;;;;;;;24.20;57.56;99865.88;110045;1249;24184;-46
2023/07/21 11:04:40;;;;;;;4.10;2.30;;;;;;;24.31;57.35;99860.73;110116;1249;22500;-45
2023/07/21 11:07:15;;;;;;;3.50;2.40;;;;;;;24.46;57.48;99860.35;110149;1249;22525;-40
2023/07/21 11:09:45;;;;;;;2.60;1.90;;;;;;;24.56;57.01;99860.55;110372;1249;22495;-39
2023/07/21 11:12:13;;;;;;;2.50;1.80;;;;;;;24.62;56.35;99859.80;110782;1249;22520;-41
2023/07/21 11:14:40;;;;;;;1.70;1.60;;;;;;;24.71;56.65;99864.08;110606;1249;22594;-38
2023/07/21 11:17:08;;;;;;;3.20;2.20;;;;;;;24.73;54.76;99863.04;110118;1249;25375;-40
2023/07/21 11:19:38;;;;;;;2.50;1.80;;;;;;;24.64;54.74;99867.52;110083;1249;22498;-40
2023/07/21 11:22:07;;;;;;;3.00;2.30;;;;;;;24.60;54.39;99870.50;112080;1249;22629;-45
